Greenwood Leflore Airport
KGWO : now visible

Airfield :











YOU CAN JOIN US ON...

 
LOGIN :

Register | Disclaimer

   EN    FR    IT 

 









Legend :    VFR   Marginal VFR   IFR   Intensive IFR   Very Intensive IFR
Visi :
Ceiling :
>= 8 km
>= 3000ft
5 to 8 km
1000 to 3000 ft
1500m to 5 km
500 to 1000 ft
800 to 1500m
200 to 500 ft
< 800m
< 200 ft
Symbols :   Thunderstorms  Fog  Heavy snow  Heavy precipitations  Wind > 20 kt






- Airport Elevation : 162 ft


KGWO - Greenwood Leflore

CURRENT METAR :
  • 281353Z AUTO 02008KT 10SM CLR 02/M04 A3061 RMK AO2 SLP366 T00171039

EXPIRED METARs :
  • 281327Z AUTO 02009KT 10SM FEW027 01/M04 A3060 RMK AO2 T00111039
  • 281253Z AUTO 01007G16KT 10SM OVC027 02/M03 A3059 RMK AO2 SLP360 T00221033
  • 281153Z AUTO 01009KT 10SM OVC028 03/M03 A3057 RMK AO2 SLP354 T00281028 10044 20028 51016

TAF KGWO
Valid from the 28 at 12:00 until the 29 at 12:00 UTC


281140Z 2812/2912 01010G16KT P6SM OVC028
FM281500 02012KT P6SM BKN030
FM281800 03010KT P6SM FEW250
KZME FIR / North America



MET'MAP, your aeronautical weather chart ! - Copyright ORBIFLY December 2007 - Disclaimer

ORBIFLY MET'MAP TEAM :

Programming & Development : Alexandra Zaïnal
Concept & original design : Baudouin d'Aumeries
Assistance for programming : Marc-Olivier Méhu
Technical & hardware support : Manuel Goepfert

Contact : metmap@orbifly.com




SOURCES & CREDITS :

   NOAA       Earth
Advisory